Time;durP1;ratioP1;P1;durP2;ratioP2;P2;SDS_P1;SDS_P2;PMS_P1;PMS_P2;Temp;Humidity;BMP_temperature;BMP_pressure;BME280_temperature;BME280_humidity;BME280_pressure;Samples;Min_cycle;Max_cycle;Signal;HPM_P1;HPM_P2
2023/12/29 00:01:19;;;;;;;10.80;1.95;;;;;;;;;;5062773;28;20123;-59
2023/12/29 00:03:46;;;;;;;11.57;2.15;;;;;;;;;;5061741;28;20056;-57
2023/12/29 00:06:12;;;;;;;10.63;2.65;;;;;;;;;;5061415;28;20480;-59
2023/12/29 00:08:38;;;;;;;14.50;2.63;;;;;;;;;;5062152;28;20088;-60
2023/12/29 00:11:05;;;;;;;12.32;2.65;;;;;;;;;;5062247;28;20060;-57
2023/12/29 00:13:31;;;;;;;10.25;1.95;;;;;;;;;;5062914;28;20060;-58
2023/12/29 00:15:58;;;;;;;9.77;1.95;;;;;;;;;;5061895;28;20056;-59
2023/12/29 00:18:24;;;;;;;9.55;2.08;;;;;;;;;;5061468;28;20053;-59
2023/12/29 00:20:51;;;;;;;8.88;2.88;;;;;;;;;;5062051;28;20055;-57
2023/12/29 00:23:33;;;;;;;8.43;1.90;;;;;;;;;;5062236;28;20061;-59
2023/12/29 00:25:59;;;;;;;14.93;2.05;;;;;;;;;;5061597;28;20059;-59
2023/12/29 00:28:25;;;;;;;9.63;2.00;;;;;;;;;;5060927;28;20053;-59
2023/12/29 00:30:52;;;;;;;6.97;1.98;;;;;;;;;;5061687;28;20053;-59
2023/12/29 00:33:28;;;;;;;7.65;2.10;;;;;;;;;;5061054;28;20081;-59
2023/12/29 00:35:55;;;;;;;14.05;3.15;;;;;;;;;;5062476;28;20094;-59
2023/12/29 00:38:21;;;;;;;16.02;2.10;;;;;;;;;;5061680;28;20812;-58
2023/12/29 00:40:48;;;;;;;11.63;2.40;;;;;;;;;;5061187;28;20057;-58
2023/12/29 00:43:14;;;;;;;18.00;2.90;;;;;;;;;;5061787;28;20053;-57
2023/12/29 00:45:40;;;;;;;14.48;2.78;;;;;;;;;;5061986;28;20045;-57
2023/12/29 00:48:07;;;;;;;9.38;2.13;;;;;;;;;;5060781;28;20495;-57
2023/12/29 00:50:34;;;;;;;12.13;2.15;;;;;;;;;;5061234;28;20049;-58
2023/12/29 00:53:00;;;;;;;7.38;1.95;;;;;;;;;;5061564;28;20545;-59
2023/12/29 00:55:27;;;;;;;8.88;1.77;;;;;;;;;;5061746;28;20104;-57
2023/12/29 00:57:54;;;;;;;8.32;1.88;;;;;;;;;;5065276;28;20123;-59
2023/12/29 01:00:21;;;;;;;8.48;2.50;;;;;;;;;;5065063;28;20077;-58
2023/12/29 01:02:47;;;;;;;10.50;2.58;;;;;;;;;;5064950;28;20049;-57
2023/12/29 01:05:17;;;;;;;10.40;2.25;;;;;;;;;;5064588;28;20064;-56
2023/12/29 01:07:44;;;;;;;8.10;2.22;;;;;;;;;;5064655;28;20061;-59
2023/12/29 01:10:10;;;;;;;11.98;2.03;;;;;;;;;;5064469;28;20511;-58
2023/12/29 01:12:37;;;;;;;4.40;1.63;;;;;;;;;;5070328;28;20511;-58
2023/12/29 01:15:03;;;;;;;7.38;2.05;;;;;;;;;;5079914;28;20052;-58
2023/12/29 01:17:30;;;;;;;9.05;2.50;;;;;;;;;;5064718;28;20057;-57
2023/12/29 01:19:56;;;;;;;9.25;2.30;;;;;;;;;;5064551;28;20063;-57
2023/12/29 01:22:22;;;;;;;9.70;2.08;;;;;;;;;;5064532;28;21310;-57
2023/12/29 01:24:49;;;;;;;7.75;2.05;;;;;;;;;;5063109;28;20581;-58
2023/12/29 01:27:15;;;;;;;10.77;2.92;;;;;;;;;;5063964;28;20059;-57
2023/12/29 01:29:42;;;;;;;11.95;2.00;;;;;;;;;;5064511;28;20560;-59
2023/12/29 01:32:10;;;;;;;6.88;2.33;;;;;;;;;;5063959;28;20586;-59
2023/12/29 01:34:36;;;;;;;11.55;2.33;;;;;;;;;;5064154;28;20531;-55
2023/12/29 01:37:03;;;;;;;12.18;2.15;;;;;;;;;;5064101;28;20049;-57
2023/12/29 01:39:30;;;;;;;13.27;2.30;;;;;;;;;;5064521;28;20499;-58
2023/12/29 01:41:57;;;;;;;8.65;2.42;;;;;;;;;;5063986;28;20053;-59
2023/12/29 01:44:23;;;;;;;9.90;2.22;;;;;;;;;;5063858;28;20084;-58
2023/12/29 01:46:51;;;;;;;10.55;2.13;;;;;;;;;;5064235;28;20138;-57
2023/12/29 01:49:19;;;;;;;9.30;2.45;;;;;;;;;;5064942;28;20055;-57
2023/12/29 01:51:55;;;;;;;10.80;2.13;;;;;;;;;;5063646;28;20539;-58
2023/12/29 01:54:23;;;;;;;14.70;2.45;;;;;;;;;;5064283;28;20076;-59
2023/12/29 01:56:50;;;;;;;9.13;2.58;;;;;;;;;;5063771;28;20075;-58
2023/12/29 01:59:16;;;;;;;11.45;2.33;;;;;;;;;;5064132;28;20649;-59
2023/12/29 02:01:52;;;;;;;6.50;2.08;;;;;;;;;;5064584;28;20200;-58
2023/12/29 02:04:19;;;;;;;11.35;2.55;;;;;;;;;;5063839;28;20060;-59
2023/12/29 02:06:46;;;;;;;10.45;3.63;;;;;;;;;;5062349;28;20053;-58
2023/12/29 02:09:13;;;;;;;10.32;2.05;;;;;;;;;;5063674;28;20099;-57
2023/12/29 02:11:39;;;;;;;11.93;1.88;;;;;;;;;;5064028;28;20057;-57
2023/12/29 02:14:06;;;;;;;9.20;2.10;;;;;;;;;;5044892;28;20068;-58
2023/12/29 02:16:52;;;;;;;6.32;1.85;;;;;;;;;;5058139;28;20066;-58
2023/12/29 02:19:38;;;;;;;9.48;2.65;;;;;;;;;;5063574;28;20524;-59
2023/12/29 02:22:06;;;;;;;15.43;2.53;;;;;;;;;;5063618;28;20067;-58
2023/12/29 02:24:34;;;;;;;10.88;2.30;;;;;;;;;;5063761;28;20041;-57
2023/12/29 02:27:20;;;;;;;12.77;2.55;;;;;;;;;;5066113;28;20049;-58
2023/12/29 02:29:51;;;;;;;12.77;2.50;;;;;;;;;;5064314;28;20925;-56
2023/12/29 02:32:18;;;;;;;13.27;2.40;;;;;;;;;;5062832;28;20136;-58
2023/12/29 02:34:45;;;;;;;12.35;2.55;;;;;;;;;;5063262;28;20545;-59
2023/12/29 02:37:12;;;;;;;8.35;2.55;;;;;;;;;;5062519;28;20053;-59
2023/12/29 02:39:39;;;;;;;8.10;2.40;;;;;;;;;;5063395;28;20055;-58
2023/12/29 02:42:05;;;;;;;8.80;2.13;;;;;;;;;;5063501;28;20057;-56
2023/12/29 02:44:33;;;;;;;10.13;2.40;;;;;;;;;;5063324;28;20081;-59
2023/12/29 02:46:59;;;;;;;8.93;2.30;;;;;;;;;;5063495;28;20115;-59
2023/12/29 02:49:26;;;;;;;19.63;2.35;;;;;;;;;;5063509;28;20160;-59
2023/12/29 02:51:53;;;;;;;5.93;1.85;;;;;;;;;;5063008;28;20053;-57
2023/12/29 02:54:19;;;;;;;8.43;1.85;;;;;;;;;;5063587;28;20156;-59
2023/12/29 02:56:46;;;;;;;8.65;2.17;;;;;;;;;;5062345;28;20602;-57
2023/12/29 02:59:12;;;;;;;9.38;2.53;;;;;;;;;;5063871;28;20103;-59
2023/12/29 03:01:39;;;;;;;12.30;2.10;;;;;;;;;;5062202;28;20056;-59
2023/12/29 03:04:06;;;;;;;9.57;2.25;;;;;;;;;;5063138;28;20617;-57
2023/12/29 03:06:32;;;;;;;10.20;2.50;;;;;;;;;;5062473;28;20057;-58
2023/12/29 03:08:59;;;;;;;11.05;3.05;;;;;;;;;;5063748;28;20057;-58
2023/12/29 03:11:25;;;;;;;11.52;2.90;;;;;;;;;;5064025;28;20088;-58
2023/12/29 03:13:51;;;;;;;7.32;2.15;;;;;;;;;;5063117;28;20057;-58
2023/12/29 03:16:18;;;;;;;10.50;2.70;;;;;;;;;;5062896;28;20123;-58
2023/12/29 03:18:44;;;;;;;14.65;2.78;;;;;;;;;;5061421;28;20412;-58
2023/12/29 03:21:11;;;;;;;13.30;3.08;;;;;;;;;;5062709;28;20179;-57
2023/12/29 03:23:37;;;;;;;17.60;3.08;;;;;;;;;;5062429;28;20048;-59
2023/12/29 03:26:04;;;;;;;12.27;2.53;;;;;;;;;;5063113;28;20056;-59
2023/12/29 03:28:30;;;;;;;17.33;3.25;;;;;;;;;;5062506;28;20057;-59
2023/12/29 03:30:56;;;;;;;14.93;3.28;;;;;;;;;;5063101;28;20053;-58
2023/12/29 03:33:23;;;;;;;13.80;3.25;;;;;;;;;;5063922;28;20057;-57
2023/12/29 03:35:49;;;;;;;16.08;3.38;;;;;;;;;;5068644;28;20134;-57
2023/12/29 03:38:16;;;;;;;18.05;2.78;;;;;;;;;;5061786;28;20100;-58
2023/12/29 03:40:42;;;;;;;14.57;3.03;;;;;;;;;;5062066;28;20056;-59
2023/12/29 03:43:09;;;;;;;11.88;2.60;;;;;;;;;;5062779;28;20049;-59
2023/12/29 03:45:36;;;;;;;20.27;2.97;;;;;;;;;;5061514;28;20518;-56
2023/12/29 03:48:02;;;;;;;13.65;3.22;;;;;;;;;;5062283;28;20187;-57
2023/12/29 03:50:29;;;;;;;12.48;2.53;;;;;;;;;;5062365;28;20049;-59
2023/12/29 03:52:56;;;;;;;15.65;2.97;;;;;;;;;;5063001;28;20064;-58
2023/12/29 03:55:22;;;;;;;10.10;3.10;;;;;;;;;;5062688;28;20401;-59
2023/12/29 03:57:49;;;;;;;14.80;2.50;;;;;;;;;;5062314;28;20088;-59
2023/12/29 04:00:15;;;;;;;18.85;4.13;;;;;;;;;;5061627;28;20057;-57
2023/12/29 04:02:42;;;;;;;14.98;2.90;;;;;;;;;;5062266;28;20084;-59
2023/12/29 04:05:09;;;;;;;14.93;2.85;;;;;;;;;;5061016;28;20423;-57
2023/12/29 04:07:36;;;;;;;12.77;2.83;;;;;;;;;;5061631;28;20140;-59
2023/12/29 04:10:04;;;;;;;19.98;2.88;;;;;;;;;;5061989;28;20077;-59
2023/12/29 04:12:30;;;;;;;13.38;2.83;;;;;;;;;;5061989;28;20132;-58
2023/12/29 04:14:57;;;;;;;21.60;2.95;;;;;;;;;;5062590;28;20118;-59
2023/12/29 04:17:23;;;;;;;10.00;4.07;;;;;;;;;;5061809;28;20077;-58
2023/12/29 04:19:49;;;;;;;18.15;2.72;;;;;;;;;;5061212;28;20057;-60
2023/12/29 04:22:16;;;;;;;21.58;4.22;;;;;;;;;;5061903;28;20045;-59
2023/12/29 04:24:42;;;;;;;15.95;2.83;;;;;;;;;;5061751;28;20952;-58
2023/12/29 04:27:09;;;;;;;19.98;4.05;;;;;;;;;;5061061;28;20512;-58
2023/12/29 04:29:36;;;;;;;12.35;3.05;;;;;;;;;;5062255;28;20107;-57
2023/12/29 04:32:02;;;;;;;12.25;3.35;;;;;;;;;;5064214;28;20500;-59
2023/12/29 04:34:29;;;;;;;9.68;2.78;;;;;;;;;;5065285;28;20582;-57
2023/12/29 04:36:55;;;;;;;21.83;4.18;;;;;;;;;;5064839;28;20059;-58
2023/12/29 04:39:22;;;;;;;23.92;4.03;;;;;;;;;;5065210;28;20059;-58
2023/12/29 04:41:48;;;;;;;18.98;3.35;;;;;;;;;;5064959;28;20085;-59
2023/12/29 04:44:14;;;;;;;10.70;3.80;;;;;;;;;;5064755;28;20060;-58
2023/12/29 04:46:41;;;;;;;12.15;3.08;;;;;;;;;;5065835;28;20060;-59
2023/12/29 04:49:07;;;;;;;11.30;2.47;;;;;;;;;;5063488;28;20045;-59
2023/12/29 04:51:34;;;;;;;18.25;2.92;;;;;;;;;;5065414;28;20056;-58
2023/12/29 04:54:00;;;;;;;18.90;3.30;;;;;;;;;;5064057;28;20059;-57
2023/12/29 04:56:27;;;;;;;18.65;3.40;;;;;;;;;;5065698;28;20503;-58
2023/12/29 04:58:53;;;;;;;17.63;2.90;;;;;;;;;;5064185;28;20507;-57
2023/12/29 05:01:19;;;;;;;16.45;3.00;;;;;;;;;;5065153;28;20049;-59
2023/12/29 05:03:46;;;;;;;19.88;3.97;;;;;;;;;;5063889;28;20638;-59
2023/12/29 05:06:12;;;;;;;15.35;3.15;;;;;;;;;;5065502;28;20072;-58
2023/12/29 05:08:39;;;;;;;23.02;4.15;;;;;;;;;;5064279;28;20128;-59
2023/12/29 05:11:05;;;;;;;18.45;3.20;;;;;;;;;;5065236;28;20057;-59
2023/12/29 05:13:32;;;;;;;21.95;3.65;;;;;;;;;;5064750;28;20049;-58
2023/12/29 05:15:58;;;;;;;16.88;3.90;;;;;;;;;;5064573;28;20103;-57
2023/12/29 05:18:26;;;;;;;14.07;3.22;;;;;;;;;;5064800;28;20065;-59
2023/12/29 05:20:53;;;;;;;17.30;3.28;;;;;;;;;;5064159;28;20408;-57
2023/12/29 05:23:19;;;;;;;12.85;3.35;;;;;;;;;;5064241;28;20106;-59
2023/12/29 05:25:45;;;;;;;19.48;3.80;;;;;;;;;;5064230;28;20210;-59
2023/12/29 05:28:12;;;;;;;18.00;3.17;;;;;;;;;;5065133;28;20045;-59
2023/12/29 05:30:38;;;;;;;19.45;4.07;;;;;;;;;;5063789;28;20057;-59
2023/12/29 05:33:05;;;;;;;19.65;4.20;;;;;;;;;;5064337;28;20064;-58
2023/12/29 05:35:31;;;;;;;20.95;4.15;;;;;;;;;;5064366;28;20053;-59
2023/12/29 05:37:58;;;;;;;19.80;3.88;;;;;;;;;;5064886;28;20045;-59
2023/12/29 05:40:24;;;;;;;18.63;2.55;;;;;;;;;;5064122;28;20085;-57
2023/12/29 05:42:51;;;;;;;21.83;3.65;;;;;;;;;;5063826;28;20053;-56
2023/12/29 05:45:18;;;;;;;23.52;2.97;;;;;;;;;;5070557;28;20060;-57
2023/12/29 05:47:44;;;;;;;16.02;3.17;;;;;;;;;;5063730;28;20085;-58
2023/12/29 05:50:11;;;;;;;18.20;3.00;;;;;;;;;;5064489;28;20555;-58
2023/12/29 05:52:37;;;;;;;24.88;3.78;;;;;;;;;;5063714;28;20049;-58
2023/12/29 05:55:04;;;;;;;20.42;2.95;;;;;;;;;;5065049;28;20049;-58
2023/12/29 05:57:30;;;;;;;23.25;3.65;;;;;;;;;;5064247;28;20529;-59
2023/12/29 05:59:57;;;;;;;25.77;3.95;;;;;;;;;;5065557;28;20151;-58
2023/12/29 06:02:23;;;;;;;17.48;2.78;;;;;;;;;;5065239;28;20056;-58
2023/12/29 06:04:50;;;;;;;14.77;2.85;;;;;;;;;;5065085;28;20531;-57
2023/12/29 06:07:16;;;;;;;18.33;3.45;;;;;;;;;;5064242;28;20055;-58
2023/12/29 06:09:43;;;;;;;17.30;3.78;;;;;;;;;;5064523;28;20617;-59
2023/12/29 06:12:10;;;;;;;15.57;3.30;;;;;;;;;;5064364;28;20053;-59
2023/12/29 06:14:37;;;;;;;12.50;2.78;;;;;;;;;;5063951;28;20057;-57
2023/12/29 06:17:03;;;;;;;12.75;2.92;;;;;;;;;;5064176;28;20766;-58
2023/12/29 06:19:32;;;;;;;14.38;2.60;;;;;;;;;;5063977;28;20526;-58
2023/12/29 06:21:58;;;;;;;13.65;2.55;;;;;;;;;;5044470;28;20045;-57
2023/12/29 06:24:25;;;;;;;17.92;2.97;;;;;;;;;;5059382;28;20492;-58
2023/12/29 06:26:51;;;;;;;14.77;2.85;;;;;;;;;;5064000;28;20144;-57
2023/12/29 06:29:18;;;;;;;22.58;3.28;;;;;;;;;;5063115;28;20475;-59
2023/12/29 06:31:44;;;;;;;14.68;3.38;;;;;;;;;;5064388;28;20552;-59
2023/12/29 06:34:11;;;;;;;15.00;3.13;;;;;;;;;;5063871;28;20049;-59
2023/12/29 06:36:38;;;;;;;17.08;2.88;;;;;;;;;;5064530;28;20156;-59
2023/12/29 06:39:04;;;;;;;16.60;3.30;;;;;;;;;;5064353;28;20059;-58
2023/12/29 06:41:31;;;;;;;17.27;3.05;;;;;;;;;;5063968;28;20049;-58
2023/12/29 06:43:58;;;;;;;10.00;2.10;;;;;;;;;;5063551;28;20137;-58
2023/12/29 06:46:24;;;;;;;21.70;3.58;;;;;;;;;;5062583;28;20092;-57
2023/12/29 06:48:51;;;;;;;8.68;2.55;;;;;;;;;;5061098;28;20132;-59
2023/12/29 06:51:18;;;;;;;18.73;2.85;;;;;;;;;;5063022;28;20053;-56
2023/12/29 06:53:45;;;;;;;12.45;3.17;;;;;;;;;;5063121;28;20049;-59
2023/12/29 06:56:13;;;;;;;14.82;3.72;;;;;;;;;;5062848;28;20132;-58
2023/12/29 06:58:39;;;;;;;14.73;3.08;;;;;;;;;;5062020;28;20103;-59
2023/12/29 07:01:05;;;;;;;10.77;2.17;;;;;;;;;;5058084;28;20053;-59
2023/12/29 07:03:32;;;;;;;12.05;2.45;;;;;;;;;;5062768;28;20057;-59
2023/12/29 07:06:02;;;;;;;13.70;2.58;;;;;;;;;;5062792;28;20064;-57
2023/12/29 07:08:28;;;;;;;14.00;3.38;;;;;;;;;;5068067;28;20110;-57
2023/12/29 07:10:55;;;;;;;11.35;2.75;;;;;;;;;;5078323;28;20057;-57
2023/12/29 07:13:21;;;;;;;7.65;2.03;;;;;;;;;;5062840;28;20053;-59
2023/12/29 07:15:48;;;;;;;9.68;1.90;;;;;;;;;;5062688;28;20495;-57
2023/12/29 07:18:15;;;;;;;7.40;1.90;;;;;;;;;;5062143;28;20531;-57
2023/12/29 07:20:42;;;;;;;6.35;1.92;;;;;;;;;;5062482;28;20417;-55
2023/12/29 07:23:08;;;;;;;7.07;1.92;;;;;;;;;;5062196;28;20132;-57
2023/12/29 07:25:35;;;;;;;9.60;2.25;;;;;;;;;;5063049;28;20053;-59
2023/12/29 07:28:01;;;;;;;10.15;1.85;;;;;;;;;;5062665;28;20059;-57
2023/12/29 07:30:28;;;;;;;8.95;2.08;;;;;;;;;;5062431;28;20079;-59
2023/12/29 07:32:55;;;;;;;7.18;2.13;;;;;;;;;;5063015;28;20055;-58
2023/12/29 07:35:22;;;;;;;7.47;2.28;;;;;;;;;;5063300;28;20049;-55
2023/12/29 07:37:48;;;;;;;5.75;2.00;;;;;;;;;;5062305;28;20053;-59
2023/12/29 07:40:15;;;;;;;5.57;2.60;;;;;;;;;;5061627;28;20543;-59
2023/12/29 07:42:43;;;;;;;9.70;1.88;;;;;;;;;;5061908;28;20088;-58
2023/12/29 07:45:09;;;;;;;10.82;2.97;;;;;;;;;;5073731;28;20048;-59
2023/12/29 07:47:36;;;;;;;5.57;2.33;;;;;;;;;;5063347;28;20045;-59
2023/12/29 07:50:03;;;;;;;3.88;2.13;;;;;;;;;;5063966;28;20061;-59
2023/12/29 07:52:30;;;;;;;7.22;2.13;;;;;;;;;;5061698;28;20744;-59
2023/12/29 07:54:56;;;;;;;8.32;2.20;;;;;;;;;;5062001;28;20080;-58
2023/12/29 07:57:23;;;;;;;6.78;2.58;;;;;;;;;;5062153;28;20057;-59
2023/12/29 07:59:49;;;;;;;12.38;3.13;;;;;;;;;;5061461;28;20934;-59
2023/12/29 08:02:16;;;;;;;8.52;2.63;;;;;;;;;;5062052;28;20076;-59
2023/12/29 08:04:45;;;;;;;10.07;2.78;;;;;;;;;;5060944;28;20068;-59
2023/12/29 08:07:11;;;;;;;8.65;2.70;;;;;;;;;;5062640;28;20523;-57
2023/12/29 08:09:37;;;;;;;7.20;2.75;;;;;;;;;;5061388;28;20060;-57
2023/12/29 08:12:04;;;;;;;8.02;2.45;;;;;;;;;;5060377;28;20049;-58
2023/12/29 08:14:32;;;;;;;10.20;2.95;;;;;;;;;;5060869;28;20061;-58
2023/12/29 08:16:58;;;;;;;5.65;2.35;;;;;;;;;;5062663;28;20060;-56
2023/12/29 08:19:24;;;;;;;10.13;3.00;;;;;;;;;;5060456;28;20052;-57
2023/12/29 08:21:51;;;;;;;7.55;2.67;;;;;;;;;;5059674;28;20061;-59
2023/12/29 08:24:20;;;;;;;5.88;2.63;;;;;;;;;;5058103;28;20056;-59
2023/12/29 08:26:47;;;;;;;9.68;2.88;;;;;;;;;;5059979;28;20579;-58
2023/12/29 08:29:14;;;;;;;10.60;2.58;;;;;;;;;;5060396;28;20797;-58
2023/12/29 08:31:43;;;;;;;7.30;2.53;;;;;;;;;;5061536;28;20083;-59
2023/12/29 08:34:10;;;;;;;4.55;1.92;;;;;;;;;;5061314;28;20060;-60
2023/12/29 08:36:37;;;;;;;8.98;2.25;;;;;;;;;;5061308;28;20053;-59
2023/12/29 08:39:03;;;;;;;9.50;2.33;;;;;;;;;;5061294;28;20055;-56
2023/12/29 08:41:30;;;;;;;13.10;2.75;;;;;;;;;;5060051;28;20053;-59
2023/12/29 08:43:56;;;;;;;6.47;2.25;;;;;;;;;;5061811;28;20049;-57
2023/12/29 08:46:24;;;;;;;9.43;2.40;;;;;;;;;;5061080;28;20591;-59
2023/12/29 08:48:50;;;;;;;5.97;2.25;;;;;;;;;;5061686;28;20069;-58
2023/12/29 08:51:17;;;;;;;6.70;2.47;;;;;;;;;;5062091;28;20064;-58
2023/12/29 08:53:43;;;;;;;10.95;2.75;;;;;;;;;;5061589;28;20052;-59
2023/12/29 08:56:10;;;;;;;6.78;2.45;;;;;;;;;;5060916;28;20061;-59
2023/12/29 08:58:36;;;;;;;9.18;2.92;;;;;;;;;;5060541;28;20053;-58
2023/12/29 09:01:03;;;;;;;5.38;2.25;;;;;;;;;;5062134;28;20571;-57
2023/12/29 09:03:29;;;;;;;4.43;2.00;;;;;;;;;;5059865;28;20056;-59
2023/12/29 09:05:57;;;;;;;6.32;2.15;;;;;;;;;;5061275;28;20661;-59
2023/12/29 09:08:23;;;;;;;7.63;2.20;;;;;;;;;;5060231;28;20581;-59
2023/12/29 09:10:49;;;;;;;8.38;2.33;;;;;;;;;;5061835;28;20144;-60
2023/12/29 09:13:18;;;;;;;8.35;2.33;;;;;;;;;;5061002;28;20049;-60
2023/12/29 09:15:45;;;;;;;11.57;2.95;;;;;;;;;;5069873;28;20057;-59
2023/12/29 09:18:11;;;;;;;4.82;1.95;;;;;;;;;;5077797;28;20053;-59
2023/12/29 09:20:39;;;;;;;6.10;1.90;;;;;;;;;;5063566;28;20180;-59
2023/12/29 09:23:06;;;;;;;10.10;2.35;;;;;;;;;;5062564;28;20518;-58
2023/12/29 09:25:32;;;;;;;5.95;2.10;;;;;;;;;;5064418;28;20427;-59
2023/12/29 09:27:59;;;;;;;7.10;2.75;;;;;;;;;;5064118;28;20511;-58
2023/12/29 09:30:25;;;;;;;6.43;2.13;;;;;;;;;;5064350;28;20053;-58
2023/12/29 09:32:52;;;;;;;5.82;1.90;;;;;;;;;;5064974;28;20057;-59
2023/12/29 09:35:20;;;;;;;9.77;2.17;;;;;;;;;;5064283;28;20136;-59
2023/12/29 09:37:50;;;;;;;12.43;2.28;;;;;;;;;;5063174;28;20056;-59
2023/12/29 09:40:16;;;;;;;7.50;1.80;;;;;;;;;;5063696;28;20057;-58
2023/12/29 09:42:46;;;;;;;6.25;1.95;;;;;;;;;;5064536;28;20053;-58
2023/12/29 09:45:13;;;;;;;5.53;1.70;;;;;;;;;;5063565;28;20093;-59
2023/12/29 09:47:41;;;;;;;6.40;2.60;;;;;;;;;;5064219;28;20052;-57
2023/12/29 09:50:10;;;;;;;7.25;2.00;;;;;;;;;;5063502;28;20056;-59
2023/12/29 09:52:40;;;;;;;7.70;1.75;;;;;;;;;;5063042;28;20049;-59
2023/12/29 09:55:10;;;;;;;7.68;2.00;;;;;;;;;;5064350;28;20103;-58
2023/12/29 09:57:40;;;;;;;5.90;1.83;;;;;;;;;;5064190;28;20072;-59
2023/12/29 10:00:10;;;;;;;7.88;2.05;;;;;;;;;;5059352;28;20077;-46
2023/12/29 10:02:37;;;;;;;6.90;2.25;;;;;;;;;;5048259;28;20063;-58
2023/12/29 10:05:04;;;;;;;6.38;1.80;;;;;;;;;;5064710;28;20081;-59
2023/12/29 10:07:40;;;;;;;9.25;2.22;;;;;;;;;;5063627;28;20058;-60
2023/12/29 10:10:07;;;;;;;9.25;1.95;;;;;;;;;;5064145;28;20598;-60
2023/12/29 10:12:34;;;;;;;7.28;1.88;;;;;;;;;;5063784;28;20072;-59
2023/12/29 10:15:05;;;;;;;9.60;2.03;;;;;;;;;;5064468;28;20060;-60
2023/12/29 10:17:41;;;;;;;8.52;1.90;;;;;;;;;;5064232;28;20084;-60
2023/12/29 10:20:15;;;;;;;7.15;2.38;;;;;;;;;;5063807;28;20056;-60
2023/12/29 10:22:48;;;;;;;10.02;2.55;;;;;;;;;;5063336;28;20049;-54
2023/12/29 10:25:15;;;;;;;7.72;1.90;;;;;;;;;;5059468;28;20983;-56
2023/12/29 10:27:41;;;;;;;4.70;1.73;;;;;;;;;;5060684;28;20495;-57
2023/12/29 10:30:09;;;;;;;6.18;1.73;;;;;;;;;;5061917;28;20045;-55
2023/12/29 10:32:48;;;;;;;6.72;1.95;;;;;;;;;;5063178;28;20529;-54
2023/12/29 10:35:15;;;;;;;7.70;2.25;;;;;;;;;;5062919;28;20049;-55
2023/12/29 10:37:41;;;;;;;6.55;2.25;;;;;;;;;;5063076;28;20053;-57
2023/12/29 10:40:08;;;;;;;5.85;1.80;;;;;;;;;;5062786;28;20059;-54
2023/12/29 10:42:35;;;;;;;7.55;1.80;;;;;;;;;;5063381;28;20048;-57
2023/12/29 10:45:09;;;;;;;7.30;1.85;;;;;;;;;;5062545;28;20061;-55
2023/12/29 10:47:35;;;;;;;4.70;1.95;;;;;;;;;;5063448;28;20595;-54
2023/12/29 10:50:05;;;;;;;5.47;1.60;;;;;;;;;;5062698;28;20567;-56
2023/12/29 10:52:32;;;;;;;5.40;1.90;;;;;;;;;;5063536;28;20159;-55
2023/12/29 10:55:09;;;;;;;11.50;1.95;;;;;;;;;;5062886;28;20049;-53
2023/12/29 10:57:35;;;;;;;6.10;1.70;;;;;;;;;;5063172;28;20083;-52
2023/12/29 11:00:03;;;;;;;7.07;2.28;;;;;;;;;;5063048;28;20049;-55
2023/12/29 11:02:30;;;;;;;6.75;1.88;;;;;;;;;;5061818;28;20056;-56
2023/12/29 11:05:01;;;;;;;8.82;2.38;;;;;;;;;;5063237;28;20499;-55
2023/12/29 11:07:41;;;;;;;7.40;1.48;;;;;;;;;;5062262;28;20056;-53
2023/12/29 11:10:08;;;;;;;12.85;2.20;;;;;;;;;;5060715;28;20184;-56
2023/12/29 11:12:37;;;;;;;9.55;2.15;;;;;;;;;;5054988;28;20483;-54
2023/12/29 11:15:05;;;;;;;7.05;1.67;;;;;;;;;;5055302;28;20052;-55
2023/12/29 11:17:35;;;;;;;6.18;1.85;;;;;;;;;;5054675;28;20053;-57
2023/12/29 11:20:03;;;;;;;6.65;1.67;;;;;;;;;;5060905;28;20057;-55
2023/12/29 11:22:31;;;;;;;9.00;1.90;;;;;;;;;;5056075;28;20119;-53
2023/12/29 11:24:59;;;;;;;11.88;2.00;;;;;;;;;;5062447;28;20530;-53
2023/12/29 11:27:29;;;;;;;13.32;2.22;;;;;;;;;;5064868;28;20132;-54
2023/12/29 11:29:57;;;;;;;9.07;2.53;;;;;;;;;;5061581;28;20403;-56
2023/12/29 11:32:44;;;;;;;12.93;2.33;;;;;;;;;;5061834;28;20049;-56
2023/12/29 11:35:19;;;;;;;14.57;2.60;;;;;;;;;;5061921;28;20096;-57
2023/12/29 11:37:49;;;;;;;12.60;2.03;;;;;;;;;;5062303;28;20056;-56
2023/12/29 11:40:24;;;;;;;9.02;1.67;;;;;;;;;;5061944;28;20135;-55
2023/12/29 11:42:53;;;;;;;6.18;1.63;;;;;;;;;;5062536;28;20087;-54
2023/12/29 11:45:28;;;;;;;11.13;2.25;;;;;;;;;;5061787;28;20052;-57
2023/12/29 11:47:55;;;;;;;14.13;2.22;;;;;;;;;;5061965;28;20550;-55
2023/12/29 11:50:32;;;;;;;13.73;2.00;;;;;;;;;;5062209;28;20491;-53
2023/12/29 11:52:59;;;;;;;10.90;2.92;;;;;;;;;;5062167;28;20055;-54
2023/12/29 11:55:31;;;;;;;12.90;1.63;;;;;;;;;;5060902;28;20052;-56
2023/12/29 11:57:58;;;;;;;10.38;2.33;;;;;;;;;;5061930;28;20080;-55
2023/12/29 12:00:43;;;;;;;12.90;2.30;;;;;;;;;;5061323;28;20081;-52
2023/12/29 12:03:14;;;;;;;13.77;1.92;;;;;;;;;;5061281;28;20044;-56
2023/12/29 12:05:44;;;;;;;10.23;2.38;;;;;;;;;;5062867;28;20107;-54
2023/12/29 12:08:25;;;;;;;10.35;1.80;;;;;;;;;;5062175;28;20049;-55
2023/12/29 12:10:52;;;;;;;13.43;2.38;;;;;;;;;;5062461;28;20138;-54
2023/12/29 12:13:38;;;;;;;10.93;2.00;;;;;;;;;;5062029;28;20450;-56
2023/12/29 12:16:04;;;;;;;8.82;1.75;;;;;;;;;;5061679;28;20060;-58
2023/12/29 12:18:31;;;;;;;9.43;1.45;;;;;;;;;;5073352;28;20158;-58
2023/12/29 12:20:59;;;;;;;8.93;2.03;;;;;;;;;;5061707;28;20107;-59
2023/12/29 12:23:28;;;;;;;10.95;2.83;;;;;;;;;;5061202;28;20061;-58
2023/12/29 12:25:57;;;;;;;10.10;2.10;;;;;;;;;;5061705;28;20055;-57
2023/12/29 12:28:23;;;;;;;12.50;2.38;;;;;;;;;;5061802;28;20079;-58
2023/12/29 12:30:50;;;;;;;10.77;2.33;;;;;;;;;;5061847;28;20053;-58
2023/12/29 12:33:16;;;;;;;12.85;1.95;;;;;;;;;;5061625;28;20061;-57
2023/12/29 12:35:44;;;;;;;10.27;1.83;;;;;;;;;;5061137;28;20055;-57
2023/12/29 12:38:22;;;;;;;10.05;1.98;;;;;;;;;;5061295;28;20496;-57
2023/12/29 12:40:48;;;;;;;10.63;2.38;;;;;;;;;;5061849;28;20045;-58
2023/12/29 12:43:17;;;;;;;8.20;1.92;;;;;;;;;;5061464;28;20057;-57
2023/12/29 12:45:47;;;;;;;9.38;1.63;;;;;;;;;;5061246;28;20061;-54
2023/12/29 12:48:14;;;;;;;9.73;2.08;;;;;;;;;;5060545;28;20057;-55
2023/12/29 12:50:44;;;;;;;10.90;2.15;;;;;;;;;;5062297;28;20053;-55
2023/12/29 12:53:14;;;;;;;12.02;2.60;;;;;;;;;;5045418;28;20144;-58
2023/12/29 12:55:41;;;;;;;11.50;2.20;;;;;;;;;;5060692;28;20083;-57
2023/12/29 12:58:07;;;;;;;13.45;2.00;;;;;;;;;;5064877;28;20053;-54
2023/12/29 13:00:34;;;;;;;11.52;2.40;;;;;;;;;;5063908;28;20539;-58
2023/12/29 13:03:01;;;;;;;16.52;2.42;;;;;;;;;;5065253;28;20601;-56
2023/12/29 13:05:29;;;;;;;12.05;2.05;;;;;;;;;;5064540;28;20426;-58
2023/12/29 13:07:58;;;;;;;13.85;2.42;;;;;;;;;;5064446;28;20056;-57
2023/12/29 13:10:24;;;;;;;11.75;1.88;;;;;;;;;;5064313;28;20092;-57
2023/12/29 13:12:54;;;;;;;10.63;2.38;;;;;;;;;;5064745;28;20500;-57
2023/12/29 13:15:21;;;;;;;13.02;2.10;;;;;;;;;;5064021;28;20115;-55
2023/12/29 13:17:51;;;;;;;15.57;2.05;;;;;;;;;;5065008;28;20053;-58
2023/12/29 13:20:18;;;;;;;10.05;2.20;;;;;;;;;;5062778;28;20052;-56
2023/12/29 13:22:51;;;;;;;10.63;2.63;;;;;;;;;;5064085;28;20061;-56
2023/12/29 13:25:18;;;;;;;12.75;3.30;;;;;;;;;;5065073;28;20143;-57
2023/12/29 13:27:44;;;;;;;10.80;2.42;;;;;;;;;;5063752;28;20049;-57
2023/12/29 13:30:14;;;;;;;13.63;2.17;;;;;;;;;;5056028;28;20110;-57
2023/12/29 13:32:42;;;;;;;11.98;2.15;;;;;;;;;;5063104;28;20140;-56
2023/12/29 13:35:11;;;;;;;11.25;2.42;;;;;;;;;;5064637;28;20056;-55
2023/12/29 13:37:41;;;;;;;14.05;4.25;;;;;;;;;;5044138;28;20144;-56
2023/12/29 13:40:13;;;;;;;11.43;2.83;;;;;;;;;;5059216;28;20515;-56
2023/12/29 13:42:41;;;;;;;12.90;2.25;;;;;;;;;;5063737;28;20153;-57
2023/12/29 13:45:08;;;;;;;15.70;3.17;;;;;;;;;;5063037;28;20057;-58
2023/12/29 13:47:36;;;;;;;13.57;2.92;;;;;;;;;;5063947;28;20140;-57
2023/12/29 13:50:03;;;;;;;14.10;2.10;;;;;;;;;;5062416;28;20118;-55
2023/12/29 13:52:29;;;;;;;9.63;2.40;;;;;;;;;;5063748;28;20053;-55
2023/12/29 13:54:55;;;;;;;16.70;2.70;;;;;;;;;;5063704;28;20049;-56
2023/12/29 13:57:34;;;;;;;12.10;1.98;;;;;;;;;;5064679;28;20053;-57
2023/12/29 14:00:22;;;;;;;11.85;2.55;;;;;;;;;;5063973;28;20057;-57
2023/12/29 14:02:58;;;;;;;14.13;2.92;;;;;;;;;;5063149;28;20056;-56
2023/12/29 14:05:31;;;;;;;9.48;2.13;;;;;;;;;;5064353;28;20055;-56
2023/12/29 14:08:04;;;;;;;20.25;2.72;;;;;;;;;;5063768;28;20530;-58
2023/12/29 14:10:31;;;;;;;13.18;2.33;;;;;;;;;;5063003;28;20578;-56
2023/12/29 14:13:07;;;;;;;19.90;3.00;;;;;;;;;;5064027;28;20080;-56
2023/12/29 14:15:37;;;;;;;12.27;3.35;;;;;;;;;;5063536;28;20080;-58
2023/12/29 14:18:27;;;;;;;13.38;2.47;;;;;;;;;;5062404;28;20140;-58
2023/12/29 14:20:54;;;;;;;15.07;2.33;;;;;;;;;;5054613;28;20139;-56
2023/12/29 14:23:20;;;;;;;13.52;2.53;;;;;;;;;;5064044;28;20144;-57
2023/12/29 14:25:47;;;;;;;14.23;2.38;;;;;;;;;;5063558;28;20520;-55
2023/12/29 14:28:15;;;;;;;14.40;2.55;;;;;;;;;;5062445;28;20397;-55
2023/12/29 14:30:41;;;;;;;12.18;2.00;;;;;;;;;;5062524;28;20107;-57
2023/12/29 14:33:08;;;;;;;10.82;2.17;;;;;;;;;;5062635;28;20519;-58
2023/12/29 14:35:35;;;;;;;9.32;2.10;;;;;;;;;;5063406;28;20089;-57
2023/12/29 14:38:02;;;;;;;12.90;2.03;;;;;;;;;;5064817;28;20111;-58
2023/12/29 14:40:29;;;;;;;10.30;2.67;;;;;;;;;;5062429;28;20139;-59